sensor_id;sensor_type;location;lat;lon;timestamp;P1;durP1;ratioP1;P2;durP2;ratioP2
29728;SDS011;20055;51.498;11.960;2022-07-23T00:02:08;12.40;;;7.60;;
29728;SDS011;20055;51.498;11.960;2022-07-23T00:04:34;14.75;;;8.20;;
29728;SDS011;20055;51.498;11.960;2022-07-23T00:07:00;15.25;;;8.32;;
29728;SDS011;20055;51.498;11.960;2022-07-23T00:09:27;15.63;;;8.57;;
29728;SDS011;20055;51.498;11.960;2022-07-23T00:11:56;16.02;;;8.60;;
29728;SDS011;20055;51.498;11.960;2022-07-23T00:14:22;17.58;;;9.25;;
29728;SDS011;20055;51.498;11.960;2022-07-23T00:16:49;17.48;;;8.70;;
29728;SDS011;20055;51.498;11.960;2022-07-23T00:19:15;12.25;;;8.63;;
29728;SDS011;20055;51.498;11.960;2022-07-23T00:21:41;17.42;;;8.32;;
29728;SDS011;20055;51.498;11.960;2022-07-23T00:24:08;17.38;;;8.38;;
29728;SDS011;20055;51.498;11.960;2022-07-23T00:26:34;12.57;;;7.65;;
29728;SDS011;20055;51.498;11.960;2022-07-23T00:29:00;26.45;;;9.07;;
29728;SDS011;20055;51.498;11.960;2022-07-23T00:31:26;12.25;;;8.90;;
29728;SDS011;20055;51.498;11.960;2022-07-23T00:33:54;17.55;;;9.02;;
29728;SDS011;20055;51.498;11.960;2022-07-23T00:36:23;14.25;;;7.57;;
29728;SDS011;20055;51.498;11.960;2022-07-23T00:38:49;17.23;;;8.82;;
29728;SDS011;20055;51.498;11.960;2022-07-23T00:41:16;20.05;;;9.02;;
29728;SDS011;20055;51.498;11.960;2022-07-23T00:43:42;15.15;;;7.93;;
29728;SDS011;20055;51.498;11.960;2022-07-23T00:46:08;17.35;;;8.68;;
29728;SDS011;20055;51.498;11.960;2022-07-23T00:48:34;21.45;;;8.77;;
29728;SDS011;20055;51.498;11.960;2022-07-23T00:51:01;15.23;;;8.43;;
29728;SDS011;20055;51.498;11.960;2022-07-23T00:53:28;19.92;;;8.60;;
29728;SDS011;20055;51.498;11.960;2022-07-23T00:55:54;15.20;;;8.48;;
29728;SDS011;20055;51.498;11.960;2022-07-23T00:58:21;14.90;;;8.68;;
29728;SDS011;20055;51.498;11.960;2022-07-23T01:00:47;16.48;;;9.90;;
29728;SDS011;20055;51.498;11.960;2022-07-23T01:03:14;21.98;;;8.68;;
29728;SDS011;20055;51.498;11.960;2022-07-23T01:05:40;12.00;;;8.25;;
29728;SDS011;20055;51.498;11.960;2022-07-23T01:08:06;18.98;;;8.77;;
29728;SDS011;20055;51.498;11.960;2022-07-23T01:10:32;16.48;;;9.15;;
29728;SDS011;20055;51.498;11.960;2022-07-23T01:13:09;14.60;;;8.40;;
29728;SDS011;20055;51.498;11.960;2022-07-23T01:15:37;15.82;;;9.70;;
29728;SDS011;20055;51.498;11.960;2022-07-23T01:18:04;14.93;;;8.55;;
29728;SDS011;20055;51.498;11.960;2022-07-23T01:20:34;14.67;;;8.57;;
29728;SDS011;20055;51.498;11.960;2022-07-23T01:23:00;16.98;;;8.77;;
29728;SDS011;20055;51.498;11.960;2022-07-23T01:25:27;19.23;;;8.48;;
29728;SDS011;20055;51.498;11.960;2022-07-23T01:27:56;17.20;;;8.77;;
29728;SDS011;20055;51.498;11.960;2022-07-23T01:30:23;16.63;;;8.27;;
29728;SDS011;20055;51.498;11.960;2022-07-23T01:32:49;16.88;;;8.40;;
29728;SDS011;20055;51.498;11.960;2022-07-23T01:35:16;17.75;;;9.45;;
29728;SDS011;20055;51.498;11.960;2022-07-23T01:37:42;16.33;;;8.82;;
29728;SDS011;20055;51.498;11.960;2022-07-23T01:40:10;23.00;;;9.80;;
29728;SDS011;20055;51.498;11.960;2022-07-23T01:42:36;12.27;;;8.18;;
29728;SDS011;20055;51.498;11.960;2022-07-23T01:45:04;19.73;;;8.43;;
29728;SDS011;20055;51.498;11.960;2022-07-23T01:47:31;15.38;;;8.65;;
29728;SDS011;20055;51.498;11.960;2022-07-23T01:49:58;21.83;;;8.75;;
29728;SDS011;20055;51.498;11.960;2022-07-23T01:52:43;18.63;;;9.10;;
29728;SDS011;20055;51.498;11.960;2022-07-23T01:55:09;22.70;;;8.98;;
29728;SDS011;20055;51.498;11.960;2022-07-23T01:57:39;15.95;;;9.70;;
29728;SDS011;20055;51.498;11.960;2022-07-23T02:00:06;20.95;;;9.45;;
29728;SDS011;20055;51.498;11.960;2022-07-23T02:02:38;20.85;;;9.48;;
29728;SDS011;20055;51.498;11.960;2022-07-23T02:05:05;15.77;;;9.85;;
29728;SDS011;20055;51.498;11.960;2022-07-23T02:07:32;24.55;;;10.77;;
29728;SDS011;20055;51.498;11.960;2022-07-23T02:09:59;14.20;;;8.75;;
29728;SDS011;20055;51.498;11.960;2022-07-23T02:12:25;18.17;;;10.00;;
29728;SDS011;20055;51.498;11.960;2022-07-23T02:14:51;20.90;;;9.77;;
29728;SDS011;20055;51.498;11.960;2022-07-23T02:17:17;15.27;;;10.43;;
29728;SDS011;20055;51.498;11.960;2022-07-23T02:19:44;16.58;;;9.73;;
29728;SDS011;20055;51.498;11.960;2022-07-23T02:22:10;14.68;;;9.20;;
29728;SDS011;20055;51.498;11.960;2022-07-23T02:24:36;21.75;;;9.02;;
29728;SDS011;20055;51.498;11.960;2022-07-23T02:27:02;15.65;;;9.98;;
29728;SDS011;20055;51.498;11.960;2022-07-23T02:29:29;13.50;;;9.52;;
29728;SDS011;20055;51.498;11.960;2022-07-23T02:31:55;16.73;;;8.68;;
29728;SDS011;20055;51.498;11.960;2022-07-23T02:34:22;17.10;;;8.52;;
29728;SDS011;20055;51.498;11.960;2022-07-23T02:36:49;19.00;;;9.43;;
29728;SDS011;20055;51.498;11.960;2022-07-23T02:39:16;20.58;;;9.60;;
29728;SDS011;20055;51.498;11.960;2022-07-23T02:41:43;14.52;;;8.18;;
29728;SDS011;20055;51.498;11.960;2022-07-23T02:44:10;14.63;;;9.13;;
29728;SDS011;20055;51.498;11.960;2022-07-23T02:46:37;17.70;;;8.38;;
29728;SDS011;20055;51.498;11.960;2022-07-23T02:49:03;14.35;;;8.38;;
29728;SDS011;20055;51.498;11.960;2022-07-23T02:51:31;17.75;;;7.75;;
29728;SDS011;20055;51.498;11.960;2022-07-23T02:54:02;12.50;;;7.95;;
29728;SDS011;20055;51.498;11.960;2022-07-23T02:56:28;15.20;;;8.23;;
29728;SDS011;20055;51.498;11.960;2022-07-23T02:58:56;15.13;;;8.70;;
29728;SDS011;20055;51.498;11.960;2022-07-23T03:01:22;13.07;;;8.40;;
29728;SDS011;20055;51.498;11.960;2022-07-23T03:03:49;16.08;;;8.75;;
29728;SDS011;20055;51.498;11.960;2022-07-23T03:06:15;16.60;;;8.10;;
29728;SDS011;20055;51.498;11.960;2022-07-23T03:08:41;19.77;;;8.10;;
29728;SDS011;20055;51.498;11.960;2022-07-23T03:11:08;19.35;;;8.82;;
29728;SDS011;20055;51.498;11.960;2022-07-23T03:13:38;25.65;;;8.23;;
29728;SDS011;20055;51.498;11.960;2022-07-23T03:16:05;14.27;;;7.47;;
29728;SDS011;20055;51.498;11.960;2022-07-23T03:18:35;21.10;;;8.33;;
29728;SDS011;20055;51.498;11.960;2022-07-23T03:21:01;16.95;;;8.48;;
29728;SDS011;20055;51.498;11.960;2022-07-23T03:23:27;13.85;;;8.60;;
29728;SDS011;20055;51.498;11.960;2022-07-23T03:25:54;16.85;;;9.30;;
29728;SDS011;20055;51.498;11.960;2022-07-23T03:28:21;12.02;;;7.93;;
29728;SDS011;20055;51.498;11.960;2022-07-23T03:30:48;16.30;;;9.85;;
29728;SDS011;20055;51.498;11.960;2022-07-23T03:33:14;16.45;;;8.85;;
29728;SDS011;20055;51.498;11.960;2022-07-23T03:35:43;15.65;;;8.75;;
29728;SDS011;20055;51.498;11.960;2022-07-23T03:38:36;15.82;;;8.07;;
29728;SDS011;20055;51.498;11.960;2022-07-23T03:41:03;21.75;;;9.27;;
29728;SDS011;20055;51.498;11.960;2022-07-23T03:43:30;15.40;;;9.50;;
29728;SDS011;20055;51.498;11.960;2022-07-23T03:45:56;18.88;;;10.15;;
29728;SDS011;20055;51.498;11.960;2022-07-23T03:48:22;15.35;;;9.00;;
29728;SDS011;20055;51.498;11.960;2022-07-23T03:50:48;17.08;;;9.45;;
29728;SDS011;20055;51.498;11.960;2022-07-23T03:53:15;14.77;;;8.93;;
29728;SDS011;20055;51.498;11.960;2022-07-23T03:55:41;20.38;;;10.13;;
29728;SDS011;20055;51.498;11.960;2022-07-23T03:58:08;21.95;;;11.05;;
29728;SDS011;20055;51.498;11.960;2022-07-23T04:00:34;23.30;;;10.63;;
29728;SDS011;20055;51.498;11.960;2022-07-23T04:03:01;22.02;;;10.57;;
29728;SDS011;20055;51.498;11.960;2022-07-23T04:05:28;29.77;;;10.65;;
29728;SDS011;20055;51.498;11.960;2022-07-23T04:08:03;22.17;;;11.43;;
29728;SDS011;20055;51.498;11.960;2022-07-23T04:10:30;28.58;;;13.77;;
29728;SDS011;20055;51.498;11.960;2022-07-23T04:12:56;29.08;;;15.02;;
29728;SDS011;20055;51.498;11.960;2022-07-23T04:15:23;31.08;;;16.05;;
29728;SDS011;20055;51.498;11.960;2022-07-23T04:17:49;33.65;;;16.58;;
29728;SDS011;20055;51.498;11.960;2022-07-23T04:20:18;40.00;;;17.70;;
29728;SDS011;20055;51.498;11.960;2022-07-23T04:22:51;25.10;;;15.40;;
29728;SDS011;20055;51.498;11.960;2022-07-23T04:25:18;31.83;;;18.00;;
29728;SDS011;20055;51.498;11.960;2022-07-23T04:27:44;29.88;;;16.20;;
29728;SDS011;20055;51.498;11.960;2022-07-23T04:30:11;28.15;;;16.52;;
29728;SDS011;20055;51.498;11.960;2022-07-23T04:32:38;36.38;;;17.38;;
29728;SDS011;20055;51.498;11.960;2022-07-23T04:35:12;29.60;;;14.85;;
29728;SDS011;20055;51.498;11.960;2022-07-23T04:37:38;19.90;;;11.10;;
29728;SDS011;20055;51.498;11.960;2022-07-23T04:40:05;30.55;;;14.43;;
29728;SDS011;20055;51.498;11.960;2022-07-23T04:42:31;20.98;;;13.55;;
29728;SDS011;20055;51.498;11.960;2022-07-23T04:44:58;28.83;;;14.23;;
29728;SDS011;20055;51.498;11.960;2022-07-23T04:47:24;26.17;;;12.43;;
29728;SDS011;20055;51.498;11.960;2022-07-23T04:49:50;26.88;;;12.45;;
29728;SDS011;20055;51.498;11.960;2022-07-23T04:52:17;23.23;;;12.32;;
29728;SDS011;20055;51.498;11.960;2022-07-23T04:54:43;22.08;;;11.80;;
29728;SDS011;20055;51.498;11.960;2022-07-23T04:57:09;19.60;;;11.70;;
29728;SDS011;20055;51.498;11.960;2022-07-23T04:59:35;24.67;;;11.25;;
29728;SDS011;20055;51.498;11.960;2022-07-23T05:02:04;15.35;;;9.98;;
29728;SDS011;20055;51.498;11.960;2022-07-23T05:04:31;18.63;;;11.27;;
29728;SDS011;20055;51.498;11.960;2022-07-23T05:06:58;17.35;;;9.93;;
29728;SDS011;20055;51.498;11.960;2022-07-23T05:09:24;18.50;;;10.63;;
29728;SDS011;20055;51.498;11.960;2022-07-23T05:11:51;19.52;;;10.95;;
29728;SDS011;20055;51.498;11.960;2022-07-23T05:14:17;16.52;;;10.18;;
29728;SDS011;20055;51.498;11.960;2022-07-23T05:16:44;19.48;;;9.80;;
29728;SDS011;20055;51.498;11.960;2022-07-23T05:19:17;17.90;;;9.63;;
29728;SDS011;20055;51.498;11.960;2022-07-23T05:21:44;20.98;;;10.63;;
29728;SDS011;20055;51.498;11.960;2022-07-23T05:24:11;18.98;;;9.70;;
29728;SDS011;20055;51.498;11.960;2022-07-23T05:26:38;22.42;;;10.90;;
29728;SDS011;20055;51.498;11.960;2022-07-23T05:29:04;18.85;;;10.63;;
29728;SDS011;20055;51.498;11.960;2022-07-23T05:31:30;19.02;;;10.63;;
29728;SDS011;20055;51.498;11.960;2022-07-23T05:33:57;23.17;;;10.20;;
29728;SDS011;20055;51.498;11.960;2022-07-23T05:36:24;17.45;;;10.18;;
29728;SDS011;20055;51.498;11.960;2022-07-23T05:38:55;26.52;;;12.30;;
29728;SDS011;20055;51.498;11.960;2022-07-23T05:41:22;19.42;;;11.07;;
29728;SDS011;20055;51.498;11.960;2022-07-23T05:43:48;19.17;;;11.45;;
29728;SDS011;20055;51.498;11.960;2022-07-23T05:46:16;24.95;;;11.48;;
29728;SDS011;20055;51.498;11.960;2022-07-23T05:48:45;19.20;;;10.30;;
29728;SDS011;20055;51.498;11.960;2022-07-23T05:51:35;23.90;;;13.48;;
29728;SDS011;20055;51.498;11.960;2022-07-23T05:54:01;23.73;;;11.10;;
29728;SDS011;20055;51.498;11.960;2022-07-23T05:56:32;22.80;;;11.43;;
29728;SDS011;20055;51.498;11.960;2022-07-23T05:58:59;17.77;;;9.63;;
29728;SDS011;20055;51.498;11.960;2022-07-23T06:01:25;22.42;;;11.65;;
29728;SDS011;20055;51.498;11.960;2022-07-23T06:04:08;21.42;;;10.88;;
29728;SDS011;20055;51.498;11.960;2022-07-23T06:06:38;18.27;;;11.13;;
29728;SDS011;20055;51.498;11.960;2022-07-23T06:09:06;20.98;;;11.00;;
29728;SDS011;20055;51.498;11.960;2022-07-23T06:11:34;15.68;;;11.60;;
29728;SDS011;20055;51.498;11.960;2022-07-23T06:14:01;19.33;;;11.73;;
29728;SDS011;20055;51.498;11.960;2022-07-23T06:16:40;21.40;;;12.13;;
29728;SDS011;20055;51.498;11.960;2022-07-23T06:19:06;26.00;;;12.15;;
29728;SDS011;20055;51.498;11.960;2022-07-23T06:21:33;16.40;;;12.35;;
29728;SDS011;20055;51.498;11.960;2022-07-23T06:23:59;23.02;;;11.88;;
29728;SDS011;20055;51.498;11.960;2022-07-23T06:26:25;22.85;;;11.68;;
29728;SDS011;20055;51.498;11.960;2022-07-23T06:28:51;20.63;;;12.05;;
29728;SDS011;20055;51.498;11.960;2022-07-23T06:31:18;19.83;;;10.98;;
29728;SDS011;20055;51.498;11.960;2022-07-23T06:33:44;16.40;;;11.40;;
29728;SDS011;20055;51.498;11.960;2022-07-23T06:36:10;21.60;;;11.63;;
29728;SDS011;20055;51.498;11.960;2022-07-23T06:38:37;15.57;;;11.65;;
29728;SDS011;20055;51.498;11.960;2022-07-23T06:41:03;23.35;;;11.30;;
29728;SDS011;20055;51.498;11.960;2022-07-23T06:43:30;20.52;;;12.27;;
29728;SDS011;20055;51.498;11.960;2022-07-23T06:45:57;22.92;;;10.90;;
29728;SDS011;20055;51.498;11.960;2022-07-23T06:48:24;17.50;;;11.55;;
29728;SDS011;20055;51.498;11.960;2022-07-23T06:50:50;22.55;;;11.15;;
29728;SDS011;20055;51.498;11.960;2022-07-23T06:53:22;17.20;;;10.02;;
29728;SDS011;20055;51.498;11.960;2022-07-23T06:55:48;22.27;;;11.07;;
29728;SDS011;20055;51.498;11.960;2022-07-23T06:58:15;16.92;;;11.77;;
29728;SDS011;20055;51.498;11.960;2022-07-23T07:00:43;20.08;;;13.55;;
29728;SDS011;20055;51.498;11.960;2022-07-23T07:03:09;18.90;;;11.90;;
29728;SDS011;20055;51.498;11.960;2022-07-23T07:05:36;22.13;;;12.15;;
29728;SDS011;20055;51.498;11.960;2022-07-23T07:08:02;20.90;;;13.05;;
29728;SDS011;20055;51.498;11.960;2022-07-23T07:10:28;18.27;;;12.57;;
29728;SDS011;20055;51.498;11.960;2022-07-23T07:12:55;25.58;;;13.63;;
29728;SDS011;20055;51.498;11.960;2022-07-23T07:15:21;21.58;;;12.95;;
29728;SDS011;20055;51.498;11.960;2022-07-23T07:17:47;21.05;;;12.18;;
29728;SDS011;20055;51.498;11.960;2022-07-23T07:20:14;20.50;;;12.20;;
29728;SDS011;20055;51.498;11.960;2022-07-23T07:22:40;17.95;;;11.85;;
29728;SDS011;20055;51.498;11.960;2022-07-23T07:25:06;23.10;;;10.85;;
29728;SDS011;20055;51.498;11.960;2022-07-23T07:27:33;19.70;;;10.70;;
29728;SDS011;20055;51.498;11.960;2022-07-23T07:29:59;23.38;;;12.13;;
29728;SDS011;20055;51.498;11.960;2022-07-23T07:32:27;15.32;;;10.82;;
29728;SDS011;20055;51.498;11.960;2022-07-23T07:34:53;24.45;;;12.77;;
29728;SDS011;20055;51.498;11.960;2022-07-23T07:37:19;18.30;;;9.40;;
29728;SDS011;20055;51.498;11.960;2022-07-23T07:39:45;18.17;;;11.35;;
29728;SDS011;20055;51.498;11.960;2022-07-23T07:42:12;20.63;;;8.63;;
29728;SDS011;20055;51.498;11.960;2022-07-23T07:44:38;15.25;;;9.93;;
29728;SDS011;20055;51.498;11.960;2022-07-23T07:47:04;20.98;;;9.73;;
29728;SDS011;20055;51.498;11.960;2022-07-23T07:49:31;17.88;;;10.00;;
29728;SDS011;20055;51.498;11.960;2022-07-23T07:51:57;21.17;;;11.82;;
29728;SDS011;20055;51.498;11.960;2022-07-23T07:54:23;18.50;;;12.20;;
29728;SDS011;20055;51.498;11.960;2022-07-23T07:56:49;22.63;;;13.68;;
29728;SDS011;20055;51.498;11.960;2022-07-23T07:59:16;19.50;;;13.60;;
29728;SDS011;20055;51.498;11.960;2022-07-23T08:01:42;25.27;;;12.10;;
29728;SDS011;20055;51.498;11.960;2022-07-23T08:04:09;28.27;;;15.10;;
29728;SDS011;20055;51.498;11.960;2022-07-23T08:06:35;24.77;;;13.30;;
29728;SDS011;20055;51.498;11.960;2022-07-23T08:09:01;30.10;;;13.25;;
29728;SDS011;20055;51.498;11.960;2022-07-23T08:11:27;24.27;;;12.43;;
29728;SDS011;20055;51.498;11.960;2022-07-23T08:13:54;20.90;;;12.38;;
29728;SDS011;20055;51.498;11.960;2022-07-23T08:16:20;19.92;;;13.32;;
29728;SDS011;20055;51.498;11.960;2022-07-23T08:18:46;26.58;;;13.07;;
29728;SDS011;20055;51.498;11.960;2022-07-23T08:21:12;21.80;;;12.88;;
29728;SDS011;20055;51.498;11.960;2022-07-23T08:23:39;19.95;;;10.68;;
29728;SDS011;20055;51.498;11.960;2022-07-23T08:26:05;26.08;;;11.40;;
29728;SDS011;20055;51.498;11.960;2022-07-23T08:28:31;19.58;;;12.25;;
29728;SDS011;20055;51.498;11.960;2022-07-23T08:30:58;15.60;;;9.48;;
29728;SDS011;20055;51.498;11.960;2022-07-23T08:33:25;19.75;;;10.55;;
29728;SDS011;20055;51.498;11.960;2022-07-23T08:35:52;20.90;;;11.00;;
29728;SDS011;20055;51.498;11.960;2022-07-23T08:38:20;16.88;;;9.63;;
29728;SDS011;20055;51.498;11.960;2022-07-23T08:40:51;20.80;;;11.10;;
29728;SDS011;20055;51.498;11.960;2022-07-23T08:43:21;15.25;;;9.88;;
29728;SDS011;20055;51.498;11.960;2022-07-23T08:45:54;20.70;;;12.05;;
29728;SDS011;20055;51.498;11.960;2022-07-23T08:48:23;15.25;;;10.80;;
29728;SDS011;20055;51.498;11.960;2022-07-23T08:50:52;22.35;;;11.55;;
29728;SDS011;20055;51.498;11.960;2022-07-23T08:53:21;17.15;;;10.93;;
29728;SDS011;20055;51.498;11.960;2022-07-23T08:55:49;19.58;;;11.95;;
29728;SDS011;20055;51.498;11.960;2022-07-23T08:58:17;19.33;;;12.48;;
29728;SDS011;20055;51.498;11.960;2022-07-23T09:00:45;21.65;;;12.68;;
29728;SDS011;20055;51.498;11.960;2022-07-23T09:03:18;19.95;;;12.18;;
29728;SDS011;20055;51.498;11.960;2022-07-23T09:05:49;20.15;;;12.02;;
29728;SDS011;20055;51.498;11.960;2022-07-23T09:10:43;21.95;;;10.05;;
29728;SDS011;20055;51.498;11.960;2022-07-23T09:15:49;19.23;;;9.38;;
29728;SDS011;20055;51.498;11.960;2022-07-23T09:18:16;20.95;;;11.07;;
29728;SDS011;20055;51.498;11.960;2022-07-23T09:20:43;19.90;;;11.23;;
29728;SDS011;20055;51.498;11.960;2022-07-23T09:23:10;22.77;;;10.07;;
29728;SDS011;20055;51.498;11.960;2022-07-23T09:25:36;22.20;;;12.00;;
29728;SDS011;20055;51.498;11.960;2022-07-23T09:28:03;23.30;;;14.30;;
29728;SDS011;20055;51.498;11.960;2022-07-23T09:30:30;28.40;;;16.35;;
29728;SDS011;20055;51.498;11.960;2022-07-23T09:35:47;23.23;;;14.10;;
29728;SDS011;20055;51.498;11.960;2022-07-23T09:38:17;22.45;;;14.13;;
29728;SDS011;20055;51.498;11.960;2022-07-23T09:40:46;30.95;;;22.40;;
29728;SDS011;20055;51.498;11.960;2022-07-23T09:43:30;19.45;;;15.00;;
29728;SDS011;20055;51.498;11.960;2022-07-23T09:46:16;28.08;;;16.58;;
29728;SDS011;20055;51.498;11.960;2022-07-23T09:48:43;30.60;;;22.80;;
29728;SDS011;20055;51.498;11.960;2022-07-23T09:51:09;28.92;;;20.05;;
29728;SDS011;20055;51.498;11.960;2022-07-23T09:53:36;23.65;;;15.75;;
29728;SDS011;20055;51.498;11.960;2022-07-23T09:56:02;38.80;;;21.42;;
29728;SDS011;20055;51.498;11.960;2022-07-23T09:58:29;28.35;;;18.38;;
29728;SDS011;20055;51.498;11.960;2022-07-23T10:00:57;24.13;;;15.55;;
29728;SDS011;20055;51.498;11.960;2022-07-23T10:03:24;27.05;;;16.08;;
29728;SDS011;20055;51.498;11.960;2022-07-23T10:06:09;20.95;;;13.02;;
29728;SDS011;20055;51.498;11.960;2022-07-23T10:08:58;27.33;;;14.25;;
29728;SDS011;20055;51.498;11.960;2022-07-23T10:11:50;19.17;;;13.35;;
29728;SDS011;20055;51.498;11.960;2022-07-23T10:14:39;22.40;;;14.73;;
29728;SDS011;20055;51.498;11.960;2022-07-23T10:17:08;22.58;;;14.35;;
29728;SDS011;20055;51.498;11.960;2022-07-23T10:19:35;21.00;;;13.82;;
29728;SDS011;20055;51.498;11.960;2022-07-23T10:22:03;25.42;;;14.70;;
29728;SDS011;20055;51.498;11.960;2022-07-23T10:30:05;27.63;;;16.02;;
29728;SDS011;20055;51.498;11.960;2022-07-23T10:37:51;23.17;;;14.25;;
29728;SDS011;20055;51.498;11.960;2022-07-23T10:40:36;26.75;;;16.65;;
29728;SDS011;20055;51.498;11.960;2022-07-23T10:43:03;27.48;;;17.60;;
29728;SDS011;20055;51.498;11.960;2022-07-23T10:45:42;23.52;;;15.32;;
29728;SDS011;20055;51.498;11.960;2022-07-23T10:48:11;31.33;;;19.50;;
29728;SDS011;20055;51.498;11.960;2022-07-23T10:50:39;22.02;;;14.50;;
29728;SDS011;20055;51.498;11.960;2022-07-23T10:58:04;21.67;;;13.90;;
29728;SDS011;20055;51.498;11.960;2022-07-23T11:00:32;20.17;;;14.10;;
29728;SDS011;20055;51.498;11.960;2022-07-23T11:03:00;16.08;;;11.10;;
29728;SDS011;20055;51.498;11.960;2022-07-23T11:05:40;24.80;;;14.13;;
29728;SDS011;20055;51.498;11.960;2022-07-23T11:10:38;20.63;;;12.95;;
29728;SDS011;20055;51.498;11.960;2022-07-23T11:31:54;18.10;;;10.52;;
29728;SDS011;20055;51.498;11.960;2022-07-23T11:34:35;19.48;;;11.27;;
29728;SDS011;20055;51.498;11.960;2022-07-23T11:37:02;17.65;;;12.68;;
29728;SDS011;20055;51.498;11.960;2022-07-23T11:39:30;19.60;;;13.52;;
29728;SDS011;20055;51.498;11.960;2022-07-23T11:41:57;18.50;;;12.05;;
29728;SDS011;20055;51.498;11.960;2022-07-23T11:44:28;18.90;;;11.38;;
29728;SDS011;20055;51.498;11.960;2022-07-23T11:47:20;19.40;;;12.40;;
29728;SDS011;20055;51.498;11.960;2022-07-23T11:49:55;14.20;;;9.88;;
29728;SDS011;20055;51.498;11.960;2022-07-23T11:52:23;22.65;;;10.88;;
29728;SDS011;20055;51.498;11.960;2022-07-23T11:57:18;26.75;;;14.70;;
29728;SDS011;20055;51.498;11.960;2022-07-23T11:59:47;22.25;;;14.98;;
29728;SDS011;20055;51.498;11.960;2022-07-23T12:02:19;23.50;;;13.35;;
29728;SDS011;20055;51.498;11.960;2022-07-23T12:04:48;23.10;;;14.73;;
29728;SDS011;20055;51.498;11.960;2022-07-23T12:07:35;19.98;;;12.73;;
29728;SDS011;20055;51.498;11.960;2022-07-23T12:15:19;26.20;;;13.32;;
29728;SDS011;20055;51.498;11.960;2022-07-23T12:17:54;22.83;;;13.68;;
29728;SDS011;20055;51.498;11.960;2022-07-23T12:20:21;16.63;;;13.63;;
29728;SDS011;20055;51.498;11.960;2022-07-23T12:22:53;21.08;;;13.52;;
29728;SDS011;20055;51.498;11.960;2022-07-23T12:25:23;19.98;;;13.82;;
29728;SDS011;20055;51.498;11.960;2022-07-23T12:28:07;24.63;;;15.10;;
29728;SDS011;20055;51.498;11.960;2022-07-23T12:30:55;27.77;;;14.15;;
29728;SDS011;20055;51.498;11.960;2022-07-23T12:35:59;25.00;;;12.77;;
29728;SDS011;20055;51.498;11.960;2022-07-23T12:38:36;26.23;;;14.82;;
29728;SDS011;20055;51.498;11.960;2022-07-23T12:41:07;20.17;;;14.45;;
29728;SDS011;20055;51.498;11.960;2022-07-23T12:43:36;19.20;;;13.32;;
29728;SDS011;20055;51.498;11.960;2022-07-23T12:48:35;24.30;;;14.88;;
29728;SDS011;20055;51.498;11.960;2022-07-23T12:51:24;16.42;;;12.23;;
29728;SDS011;20055;51.498;11.960;2022-07-23T12:53:53;17.70;;;13.50;;
29728;SDS011;20055;51.498;11.960;2022-07-23T12:56:35;19.77;;;13.60;;
29728;SDS011;20055;51.498;11.960;2022-07-23T13:01:30;19.88;;;12.57;;
29728;SDS011;20055;51.498;11.960;2022-07-23T13:06:36;18.63;;;11.93;;
29728;SDS011;20055;51.498;11.960;2022-07-23T13:09:20;18.33;;;12.85;;
29728;SDS011;20055;51.498;11.960;2022-07-23T13:11:49;15.18;;;11.40;;
29728;SDS011;20055;51.498;11.960;2022-07-23T13:14:16;18.33;;;12.02;;
29728;SDS011;20055;51.498;11.960;2022-07-23T13:16:44;18.10;;;12.75;;
29728;SDS011;20055;51.498;11.960;2022-07-23T13:19:11;21.55;;;13.48;;
29728;SDS011;20055;51.498;11.960;2022-07-23T13:21:37;21.70;;;14.50;;
29728;SDS011;20055;51.498;11.960;2022-07-23T13:24:05;19.73;;;12.95;;
29728;SDS011;20055;51.498;11.960;2022-07-23T13:26:31;20.23;;;13.40;;
29728;SDS011;20055;51.498;11.960;2022-07-23T13:28:58;18.80;;;13.57;;
29728;SDS011;20055;51.498;11.960;2022-07-23T13:31:24;22.13;;;15.85;;
29728;SDS011;20055;51.498;11.960;2022-07-23T13:33:50;22.23;;;13.57;;
29728;SDS011;20055;51.498;11.960;2022-07-23T13:36:16;16.10;;;12.23;;
29728;SDS011;20055;51.498;11.960;2022-07-23T13:38:43;20.23;;;13.88;;
29728;SDS011;20055;51.498;11.960;2022-07-23T13:41:09;26.67;;;16.80;;
29728;SDS011;20055;51.498;11.960;2022-07-23T13:43:35;19.25;;;14.18;;
29728;SDS011;20055;51.498;11.960;2022-07-23T13:46:01;17.60;;;14.38;;
29728;SDS011;20055;51.498;11.960;2022-07-23T13:48:28;20.42;;;12.70;;
29728;SDS011;20055;51.498;11.960;2022-07-23T13:50:54;15.52;;;12.85;;
29728;SDS011;20055;51.498;11.960;2022-07-23T13:53:22;16.83;;;11.88;;
29728;SDS011;20055;51.498;11.960;2022-07-23T13:55:49;17.60;;;12.32;;
29728;SDS011;20055;51.498;11.960;2022-07-23T13:58:17;22.25;;;14.98;;
29728;SDS011;20055;51.498;11.960;2022-07-23T14:00:45;20.30;;;12.95;;
29728;SDS011;20055;51.498;11.960;2022-07-23T14:03:16;16.50;;;12.25;;
29728;SDS011;20055;51.498;11.960;2022-07-23T14:05:44;18.95;;;12.25;;
29728;SDS011;20055;51.498;11.960;2022-07-23T14:08:11;17.92;;;13.52;;
29728;SDS011;20055;51.498;11.960;2022-07-23T14:10:37;20.42;;;13.80;;
29728;SDS011;20055;51.498;11.960;2022-07-23T14:13:03;24.50;;;14.35;;
29728;SDS011;20055;51.498;11.960;2022-07-23T14:15:30;21.27;;;13.48;;
29728;SDS011;20055;51.498;11.960;2022-07-23T14:17:57;22.85;;;12.85;;
29728;SDS011;20055;51.498;11.960;2022-07-23T14:20:24;19.90;;;11.60;;
29728;SDS011;20055;51.498;11.960;2022-07-23T14:22:51;18.90;;;12.85;;
29728;SDS011;20055;51.498;11.960;2022-07-23T14:25:17;16.75;;;11.88;;
29728;SDS011;20055;51.498;11.960;2022-07-23T14:27:44;20.40;;;12.27;;
29728;SDS011;20055;51.498;11.960;2022-07-23T14:30:10;23.50;;;12.02;;
29728;SDS011;20055;51.498;11.960;2022-07-23T14:32:37;16.17;;;12.32;;
29728;SDS011;20055;51.498;11.960;2022-07-23T14:35:04;14.73;;;10.55;;
29728;SDS011;20055;51.498;11.960;2022-07-23T14:37:31;18.52;;;9.63;;
29728;SDS011;20055;51.498;11.960;2022-07-23T14:39:58;14.23;;;10.77;;
29728;SDS011;20055;51.498;11.960;2022-07-23T14:42:25;15.68;;;11.35;;
29728;SDS011;20055;51.498;11.960;2022-07-23T14:44:51;13.98;;;10.55;;
29728;SDS011;20055;51.498;11.960;2022-07-23T14:47:18;15.07;;;11.68;;
29728;SDS011;20055;51.498;11.960;2022-07-23T14:49:44;17.15;;;11.10;;
29728;SDS011;20055;51.498;11.960;2022-07-23T14:52:10;16.63;;;12.02;;
29728;SDS011;20055;51.498;11.960;2022-07-23T14:54:36;19.30;;;11.32;;
29728;SDS011;20055;51.498;11.960;2022-07-23T14:57:02;17.80;;;10.80;;
29728;SDS011;20055;51.498;11.960;2022-07-23T14:59:29;13.40;;;10.45;;
29728;SDS011;20055;51.498;11.960;2022-07-23T15:01:56;12.57;;;9.80;;
29728;SDS011;20055;51.498;11.960;2022-07-23T15:04:24;15.57;;;10.18;;
29728;SDS011;20055;51.498;11.960;2022-07-23T15:06:50;19.50;;;10.27;;
29728;SDS011;20055;51.498;11.960;2022-07-23T15:09:17;12.10;;;10.23;;
29728;SDS011;20055;51.498;11.960;2022-07-23T15:11:44;12.77;;;9.75;;
29728;SDS011;20055;51.498;11.960;2022-07-23T15:14:10;14.18;;;9.55;;
29728;SDS011;20055;51.498;11.960;2022-07-23T15:16:36;13.60;;;9.43;;
29728;SDS011;20055;51.498;11.960;2022-07-23T15:19:03;22.00;;;9.40;;
29728;SDS011;20055;51.498;11.960;2022-07-23T15:21:29;11.32;;;8.10;;
29728;SDS011;20055;51.498;11.960;2022-07-23T15:23:56;12.65;;;8.35;;